Time;durP1;ratioP1;P1;durP2;ratioP2;P2;SDS_P1;SDS_P2;PMS_P1;PMS_P2;Temp;Humidity;BMP_temperature;BMP_pressure;BME280_temperature;BME280_humidity;BME280_pressure;Samples;Min_cycle;Max_cycle;Signal;HPM_P1;HPM_P2
2024/01/19 00:00:47;;;;;;;30.67;19.30;;;-0.40;99.90;;;;;;5073985;28;20637;-84
2024/01/19 00:03:12;;;;;;;29.97;18.70;;;-0.40;99.90;;;;;;5073475;28;20173;-83
2024/01/19 00:05:38;;;;;;;38.93;19.70;;;-0.50;99.90;;;;;;5073700;28;20245;-83
2024/01/19 00:08:04;;;;;;;30.67;18.57;;;-0.40;99.90;;;;;;5073580;28;20548;-83
2024/01/19 00:10:33;;;;;;;26.47;17.50;;;-0.30;99.90;;;;;;5073903;28;20180;-83
2024/01/19 00:12:59;;;;;;;34.87;18.23;;;-0.40;99.90;;;;;;5073999;28;20191;-84
2024/01/19 00:15:24;;;;;;;32.73;19.73;;;-0.30;99.90;;;;;;5073983;28;20176;-83
2024/01/19 00:17:50;;;;;;;30.40;18.70;;;-0.30;99.90;;;;;;5073972;28;20556;-82
2024/01/19 00:20:16;;;;;;;36.00;19.70;;;-0.20;99.90;;;;;;5073464;28;20176;-83
2024/01/19 00:22:41;;;;;;;31.63;19.40;;;-0.10;99.90;;;;;;5073153;28;20176;-83
2024/01/19 00:25:07;;;;;;;27.87;17.50;;;0.00;99.90;;;;;;5077713;28;20208;-84
2024/01/19 00:27:33;;;;;;;31.17;18.50;;;0.00;99.90;;;;;;5078439;28;20202;-83
2024/01/19 00:29:58;;;;;;;41.63;19.00;;;-0.20;99.90;;;;;;5073725;28;20267;-83
2024/01/19 00:32:24;;;;;;;25.87;18.30;;;-0.20;99.90;;;;;;5078961;28;20194;-83
2024/01/19 00:34:50;;;;;;;28.07;17.53;;;-0.20;99.90;;;;;;5079632;28;20180;-82
2024/01/19 00:37:15;;;;;;;22.37;17.13;;;-0.20;99.90;;;;;;5086479;28;20259;-83
2024/01/19 00:39:41;;;;;;;25.03;15.90;;;-0.40;99.90;;;;;;5071904;28;20187;-84
2024/01/19 00:42:07;;;;;;;27.60;17.23;;;-0.30;99.90;;;;;;5072474;28;20179;-84
2024/01/19 00:44:33;;;;;;;24.57;16.53;;;-0.30;99.90;;;;;;5072980;28;20250;-84
2024/01/19 00:46:58;;;;;;;20.80;15.80;;;-0.20;99.90;;;;;;5073223;28;20711;-83
2024/01/19 00:49:24;;;;;;;25.10;16.83;;;-0.20;99.90;;;;;;5073172;28;20272;-84
2024/01/19 00:51:50;;;;;;;21.20;16.37;;;-0.30;99.90;;;;;;5072492;28;20177;-84
2024/01/19 00:54:16;;;;;;;24.03;15.93;;;-0.20;99.90;;;;;;5073083;28;20200;-84
2024/01/19 00:56:42;;;;;;;19.27;15.20;;;-0.20;99.90;;;;;;5073159;28;20192;-84
2024/01/19 00:59:07;;;;;;;23.67;16.13;;;-0.30;99.90;;;;;;5071605;28;20180;-83
2024/01/19 01:01:33;;;;;;;22.73;16.07;;;-0.30;99.90;;;;;;5072952;28;20172;-84
2024/01/19 01:03:58;;;;;;;22.60;16.07;;;-0.40;99.90;;;;;;5072027;28;20210;-83
2024/01/19 01:06:24;;;;;;;22.20;15.87;;;-0.40;99.90;;;;;;5072426;28;20302;-82
2024/01/19 01:08:50;;;;;;;23.53;15.87;;;-0.30;99.90;;;;;;5071339;28;20172;-83
2024/01/19 01:11:16;;;;;;;23.73;16.53;;;-0.40;99.90;;;;;;5073921;28;20184;-83
2024/01/19 01:13:42;;;;;;;21.07;15.57;;;-0.50;99.90;;;;;;5071719;28;20575;-83
2024/01/19 01:16:08;;;;;;;21.67;16.30;;;-0.50;99.90;;;;;;5071633;28;20180;-83
2024/01/19 01:18:33;;;;;;;18.33;13.43;;;-0.50;99.90;;;;;;5073135;28;20259;-83
2024/01/19 01:20:59;;;;;;;20.43;13.90;;;-0.60;99.90;;;;;;5083075;28;20301;-82
2024/01/19 01:23:25;;;;;;;20.03;14.57;;;-0.60;99.90;;;;;;5092500;28;20179;-83
2024/01/19 01:25:50;;;;;;;21.10;14.90;;;-0.60;99.90;;;;;;5090875;28;20175;-84
2024/01/19 01:28:16;;;;;;;18.90;13.93;;;-0.70;99.90;;;;;;5092150;28;20174;-83
2024/01/19 01:30:42;;;;;;;19.33;14.03;;;-0.60;99.90;;;;;;5092671;28;20693;-82
2024/01/19 01:33:08;;;;;;;19.83;13.83;;;-0.70;99.90;;;;;;5091997;28;20688;-83
2024/01/19 01:35:35;;;;;;;18.33;13.23;;;-0.80;99.90;;;;;;5092263;28;20176;-83
2024/01/19 01:38:02;;;;;;;18.23;13.67;;;-0.80;99.90;;;;;;5092692;28;20187;-83
2024/01/19 01:40:28;;;;;;;20.30;13.90;;;-0.80;99.90;;;;;;5092398;28;20721;-83
2024/01/19 01:43:00;;;;;;;23.07;15.33;;;-0.80;99.90;;;;;;5090527;28;20513;-84
2024/01/19 01:45:26;;;;;;;20.50;13.97;;;-0.80;99.90;;;;;;5092407;28;20674;-83
2024/01/19 01:47:52;;;;;;;22.13;15.53;;;-0.90;99.90;;;;;;5091973;28;20182;-83
2024/01/19 01:50:18;;;;;;;18.47;13.97;;;-0.90;99.90;;;;;;5091175;28;20592;-83
2024/01/19 01:52:44;;;;;;;17.87;12.70;;;-0.90;99.90;;;;;;5091727;28;20249;-82
2024/01/19 01:55:10;;;;;;;17.17;12.77;;;-1.00;99.90;;;;;;5092755;28;20207;-83
2024/01/19 01:57:36;;;;;;;18.03;12.80;;;-1.10;99.90;;;;;;5091185;28;20200;-82
2024/01/19 02:00:02;;;;;;;17.83;12.67;;;-1.10;99.90;;;;;;5092547;28;20550;-83
2024/01/19 02:02:28;;;;;;;16.87;13.10;;;-1.10;99.90;;;;;;5095822;28;20179;-82
2024/01/19 02:04:54;;;;;;;19.33;13.13;;;-1.00;99.90;;;;;;5096342;28;20203;-82
2024/01/19 02:07:19;;;;;;;21.40;14.57;;;-1.10;99.90;;;;;;5091808;28;20184;-82
2024/01/19 02:09:45;;;;;;;20.93;13.33;;;-1.00;99.90;;;;;;5091609;28;20643;-83
2024/01/19 02:12:12;;;;;;;22.77;14.77;;;-1.00;99.90;;;;;;5091399;28;20263;-82
2024/01/19 02:14:38;;;;;;;21.93;14.13;;;-1.00;99.90;;;;;;5092029;28;20172;-84
2024/01/19 02:17:03;;;;;;;18.87;12.93;;;-1.00;99.90;;;;;;5091871;28;20187;-82
2024/01/19 02:19:29;;;;;;;27.03;14.87;;;-1.00;99.90;;;;;;5090706;28;20187;-82
2024/01/19 02:21:55;;;;;;;22.60;13.80;;;-1.10;99.90;;;;;;5091064;28;20191;-82
2024/01/19 02:24:21;;;;;;;19.57;13.33;;;-1.10;99.90;;;;;;5091770;28;20207;-83
2024/01/19 02:26:47;;;;;;;21.10;13.80;;;-1.10;99.90;;;;;;5092904;28;20167;-83
2024/01/19 02:29:13;;;;;;;21.73;13.97;;;-1.10;99.90;;;;;;5091527;28;20180;-83
2024/01/19 02:31:39;;;;;;;20.77;14.00;;;-1.10;99.90;;;;;;5092054;28;20631;-83
2024/01/19 02:34:05;;;;;;;21.37;14.00;;;-1.00;99.90;;;;;;5091417;28;20186;-84
2024/01/19 02:36:30;;;;;;;23.07;15.60;;;-1.00;99.90;;;;;;5091512;28;20167;-84
2024/01/19 02:38:56;;;;;;;22.23;14.27;;;-1.00;99.90;;;;;;5091207;28;20180;-83
2024/01/19 02:41:21;;;;;;;24.23;14.53;;;-1.00;99.90;;;;;;5091398;28;20519;-83
2024/01/19 02:43:47;;;;;;;22.37;15.13;;;-1.00;99.90;;;;;;5091787;28;20191;-83
2024/01/19 02:46:14;;;;;;;54.47;15.83;;;-1.10;99.90;;;;;;5091766;28;20167;-84
2024/01/19 02:48:40;;;;;;;32.63;14.87;;;-1.00;99.90;;;;;;5092188;28;20172;-83
2024/01/19 02:51:05;;;;;;;27.07;15.53;;;-1.00;99.90;;;;;;5090532;28;20644;-82
2024/01/19 02:53:31;;;;;;;39.77;16.13;;;-1.20;99.90;;;;;;5090841;28;20175;-83
2024/01/19 02:55:57;;;;;;;58.90;17.67;;;-1.20;99.90;;;;;;5090814;28;20606;-83
2024/01/19 02:58:22;;;;;;;50.43;15.57;;;-1.30;99.90;;;;;;5089481;28;20183;-82
2024/01/19 03:00:48;;;;;;;49.03;16.70;;;-1.30;99.90;;;;;;5091048;28;20175;-81
2024/01/19 03:03:14;;;;;;;52.50;16.33;;;-1.40;99.90;;;;;;5093835;28;20225;-83
2024/01/19 03:05:39;;;;;;;28.73;16.30;;;-1.40;99.90;;;;;;5095031;28;20208;-83
2024/01/19 03:08:05;;;;;;;46.60;16.70;;;-1.30;99.90;;;;;;5094797;28;20629;-83
2024/01/19 03:10:30;;;;;;;51.20;16.50;;;-1.40;99.90;;;;;;5095277;28;20201;-83
2024/01/19 03:12:56;;;;;;;64.17;18.00;;;-1.40;99.90;;;;;;5094220;28;20262;-82
2024/01/19 03:15:22;;;;;;;35.53;17.17;;;-1.30;99.90;;;;;;5094617;28;20195;-84
2024/01/19 03:17:48;;;;;;;46.80;16.97;;;-1.30;99.90;;;;;;5095328;28;20191;-82
2024/01/19 03:20:13;;;;;;;50.40;17.93;;;-1.30;99.90;;;;;;5094324;28;20171;-82
2024/01/19 03:22:39;;;;;;;59.47;18.73;;;-1.20;99.90;;;;;;5096166;28;20575;-82
2024/01/19 03:25:06;;;;;;;54.20;19.00;;;-1.10;99.90;;;;;;5094183;28;20204;-83
2024/01/19 03:27:32;;;;;;;49.10;19.07;;;-1.10;99.90;;;;;;5094414;28;20164;-83
2024/01/19 03:29:57;;;;;;;49.13;17.50;;;-1.30;99.90;;;;;;5095051;28;20537;-83
2024/01/19 03:32:23;;;;;;;38.10;16.43;;;-1.30;99.90;;;;;;5093906;28;20172;-84
2024/01/19 03:34:49;;;;;;;39.83;18.53;;;-1.30;99.90;;;;;;5094742;28;20184;-83
2024/01/19 03:37:15;;;;;;;55.70;19.77;;;-1.30;99.90;;;;;;5096552;28;20193;-82
2024/01/19 03:39:40;;;;;;;37.43;18.87;;;-1.30;99.90;;;;;;5105830;28;20274;-84
2024/01/19 03:42:06;;;;;;;38.00;17.83;;;-1.20;99.90;;;;;;5100628;28;20258;-84
2024/01/19 03:44:31;;;;;;;36.40;17.80;;;-1.20;99.90;;;;;;5094538;28;20213;-84
2024/01/19 03:46:59;;;;;;;37.23;17.77;;;-1.20;99.90;;;;;;5094004;28;20172;-83
2024/01/19 03:49:25;;;;;;;55.10;19.50;;;-1.30;99.90;;;;;;5094593;28;20651;-82
2024/01/19 03:52:04;;;;;;;38.90;19.63;;;-1.30;99.90;;;;;;5094479;28;20715;-83
2024/01/19 03:54:32;;;;;;;30.90;18.80;;;-1.30;99.90;;;;;;5093230;28;20544;-83
2024/01/19 03:57:00;;;;;;;33.73;17.50;;;-1.20;99.90;;;;;;5094209;28;20659;-83
2024/01/19 03:59:26;;;;;;;39.77;19.03;;;-1.20;99.90;;;;;;5094586;28;20233;-83
2024/01/19 04:01:53;;;;;;;45.50;20.23;;;-1.00;99.90;;;;;;5094166;28;20164;-83
2024/01/19 04:04:19;;;;;;;38.37;17.57;;;-1.10;99.90;;;;;;5094100;28;20207;-83
2024/01/19 04:06:44;;;;;;;40.33;17.97;;;-1.10;99.90;;;;;;5093062;28;20236;-84
2024/01/19 04:09:10;;;;;;;32.80;17.77;;;-1.20;99.90;;;;;;5093350;28;20174;-81
2024/01/19 04:11:39;;;;;;;39.37;19.10;;;-1.30;99.90;;;;;;5094072;28;20179;-83
2024/01/19 04:14:05;;;;;;;41.83;18.07;;;-1.20;99.90;;;;;;5092630;28;20638;-82
2024/01/19 04:16:30;;;;;;;37.37;18.90;;;-1.20;99.90;;;;;;5094001;28;20636;-83
2024/01/19 04:18:56;;;;;;;43.07;20.27;;;-1.20;99.90;;;;;;5093271;28;20203;-84
2024/01/19 04:21:21;;;;;;;43.67;20.67;;;-1.10;99.90;;;;;;5093486;28;20220;-83
2024/01/19 04:23:49;;;;;;;40.63;21.10;;;-1.00;99.90;;;;;;5093859;28;20171;-83
2024/01/19 04:26:14;;;;;;;39.27;21.43;;;-1.10;99.90;;;;;;5092287;28;20172;-83
2024/01/19 04:28:40;;;;;;;40.13;20.87;;;-1.10;99.90;;;;;;5093641;28;20596;-83
2024/01/19 04:31:06;;;;;;;37.57;21.77;;;-1.00;99.90;;;;;;5094770;28;20556;-83
2024/01/19 04:33:33;;;;;;;31.10;20.53;;;-0.80;99.90;;;;;;5092610;28;20171;-83
2024/01/19 04:35:58;;;;;;;33.67;20.37;;;-0.80;99.90;;;;;;5093389;28;20589;-83
2024/01/19 04:38:24;;;;;;;36.10;20.03;;;-0.80;99.90;;;;;;5093674;28;20202;-83
2024/01/19 04:40:50;;;;;;;34.53;19.10;;;-0.80;99.90;;;;;;5097231;28;20236;-84
2024/01/19 04:43:15;;;;;;;32.40;19.30;;;-1.00;99.90;;;;;;5094996;28;20175;-82
2024/01/19 04:45:41;;;;;;;46.93;20.90;;;-1.00;99.90;;;;;;5092738;28;20215;-84
2024/01/19 04:48:07;;;;;;;43.30;19.47;;;-0.80;99.90;;;;;;5093701;28;20262;-83
2024/01/19 04:50:32;;;;;;;37.40;20.30;;;-0.90;99.90;;;;;;5092832;28;20179;-82
2024/01/19 04:52:58;;;;;;;39.67;22.47;;;-0.70;99.90;;;;;;5093923;28;20183;-83
2024/01/19 04:55:23;;;;;;;43.17;22.17;;;-0.80;99.90;;;;;;5093328;28;20527;-83
2024/01/19 04:57:49;;;;;;;41.17;21.93;;;-0.80;99.90;;;;;;5092431;28;20188;-81
2024/01/19 05:00:15;;;;;;;39.97;22.13;;;-0.70;99.90;;;;;;5086710;28;20266;-82
2024/01/19 05:02:41;;;;;;;34.67;21.23;;;-0.50;99.90;;;;;;5076564;28;20188;-84
2024/01/19 05:05:06;;;;;;;36.37;21.67;;;-0.40;99.90;;;;;;5072193;28;20699;-83
2024/01/19 05:07:33;;;;;;;37.90;22.30;;;-0.50;99.90;;;;;;5072892;28;20215;-83
2024/01/19 05:09:59;;;;;;;37.37;22.43;;;-0.70;99.90;;;;;;5072555;28;20275;-84
2024/01/19 05:12:25;;;;;;;38.63;22.87;;;-0.80;99.90;;;;;;5072431;28;20251;-83
2024/01/19 05:14:50;;;;;;;39.40;22.63;;;-0.50;99.90;;;;;;5076108;28;20176;-82
2024/01/19 05:17:18;;;;;;;36.07;20.70;;;-0.60;99.90;;;;;;5082383;28;20196;-82
2024/01/19 05:19:44;;;;;;;39.23;21.40;;;-0.50;99.90;;;;;;5076869;28;20218;-83
2024/01/19 05:22:10;;;;;;;41.60;23.23;;;-0.60;99.90;;;;;;5072179;28;20198;-83
2024/01/19 05:24:45;;;;;;;32.10;21.97;;;-0.70;99.90;;;;;;5072146;28;20640;-83
2024/01/19 05:27:11;;;;;;;33.77;22.57;;;-0.70;99.90;;;;;;5073588;28;20247;-83
2024/01/19 05:29:37;;;;;;;38.97;22.83;;;-0.60;99.90;;;;;;5072157;28;20260;-84
2024/01/19 05:32:03;;;;;;;37.13;22.13;;;-0.50;99.90;;;;;;5072355;28;20275;-82
2024/01/19 05:34:28;;;;;;;35.43;21.80;;;-0.40;99.90;;;;;;5071239;28;20186;-83
2024/01/19 05:36:55;;;;;;;38.00;22.33;;;-0.60;99.90;;;;;;5071250;28;20496;-82
2024/01/19 05:39:20;;;;;;;36.70;22.63;;;-0.60;99.90;;;;;;5071137;28;20900;-83
2024/01/19 05:41:46;;;;;;;33.60;20.73;;;-0.60;99.90;;;;;;5071099;28;20172;-83
2024/01/19 05:44:12;;;;;;;36.10;23.57;;;-0.40;99.90;;;;;;5070998;28;20283;-82
2024/01/19 05:46:38;;;;;;;36.53;22.47;;;-0.50;99.90;;;;;;5071237;28;20644;-83
2024/01/19 05:49:04;;;;;;;44.63;24.17;;;-0.60;99.90;;;;;;5071493;28;20169;-83
2024/01/19 05:51:30;;;;;;;41.20;23.17;;;-0.60;99.90;;;;;;5072698;28;20628;-83
2024/01/19 05:53:55;;;;;;;34.73;22.87;;;-0.60;99.90;;;;;;5071502;28;20251;-84
2024/01/19 05:56:21;;;;;;;39.37;22.80;;;-0.60;99.90;;;;;;5070614;28;20200;-82
2024/01/19 05:58:47;;;;;;;39.17;25.23;;;-0.50;99.90;;;;;;5071627;28;20172;-83
2024/01/19 06:01:12;;;;;;;40.90;23.47;;;-0.60;99.90;;;;;;5071266;28;21127;-83
2024/01/19 06:03:38;;;;;;;38.60;23.00;;;-0.40;99.90;;;;;;5070623;28;20267;-83
2024/01/19 06:06:05;;;;;;;43.93;23.80;;;-0.40;99.90;;;;;;5070768;28;20644;-83
2024/01/19 06:08:32;;;;;;;37.67;23.00;;;-0.50;99.90;;;;;;5071080;28;20184;-84
2024/01/19 06:10:58;;;;;;;39.27;24.67;;;-0.40;99.90;;;;;;5070885;28;20175;-82
2024/01/19 06:13:24;;;;;;;40.53;23.30;;;-0.40;99.90;;;;;;5070771;28;20202;-82
2024/01/19 06:15:50;;;;;;;35.93;23.10;;;-0.50;99.90;;;;;;5071664;28;20226;-84
2024/01/19 06:18:16;;;;;;;38.70;22.83;;;-0.70;99.90;;;;;;5071006;28;20554;-83
2024/01/19 06:20:42;;;;;;;40.70;24.13;;;-0.80;99.90;;;;;;5071650;28;20173;-83
2024/01/19 06:23:08;;;;;;;36.80;22.57;;;-0.80;99.90;;;;;;5070883;28;20180;-83
2024/01/19 06:25:35;;;;;;;40.47;22.53;;;-0.80;99.90;;;;;;5070472;28;20307;-83
2024/01/19 06:28:01;;;;;;;37.90;22.43;;;-0.90;99.90;;;;;;5070699;28;20164;-83
2024/01/19 06:30:26;;;;;;;37.00;23.10;;;-0.90;99.90;;;;;;5070763;28;20179;-83
2024/01/19 06:32:52;;;;;;;37.50;23.87;;;-0.90;99.90;;;;;;5070782;28;20182;-83
2024/01/19 06:35:18;;;;;;;39.40;24.00;;;-0.80;99.90;;;;;;5071647;28;20521;-82
2024/01/19 06:37:43;;;;;;;44.60;24.47;;;-0.90;99.90;;;;;;5073827;28;20202;-83
2024/01/19 06:40:10;;;;;;;37.60;23.77;;;-0.90;99.90;;;;;;5077492;28;20179;-84
2024/01/19 06:42:37;;;;;;;36.50;22.77;;;-0.90;99.90;;;;;;5074916;28;20711;-84
2024/01/19 06:45:03;;;;;;;41.63;24.13;;;-0.90;99.90;;;;;;5075478;28;20280;-82
2024/01/19 06:47:29;;;;;;;35.57;22.10;;;-1.00;99.90;;;;;;5075191;28;20203;-84
2024/01/19 06:49:54;;;;;;;40.50;22.87;;;-1.00;99.90;;;;;;5080025;28;20205;-85
2024/01/19 06:52:21;;;;;;;39.87;22.67;;;-1.00;99.90;;;;;;5078668;28;20702;-85
2024/01/19 06:54:47;;;;;;;41.43;23.13;;;-1.00;99.90;;;;;;5060711;28;20180;-85
2024/01/19 06:57:12;;;;;;;39.80;22.97;;;-1.10;99.90;;;;;;5075578;28;20237;-84
2024/01/19 06:59:38;;;;;;;39.70;22.93;;;-1.20;99.90;;;;;;5091925;28;20614;-84
2024/01/19 07:02:04;;;;;;;37.53;22.30;;;-1.30;99.90;;;;;;5091208;28;20171;-84
2024/01/19 07:04:30;;;;;;;36.70;22.33;;;-1.30;99.90;;;;;;5089405;28;20927;-84
2024/01/19 07:06:56;;;;;;;38.50;23.60;;;-1.30;99.90;;;;;;5080005;28;20219;-85
2024/01/19 07:09:22;;;;;;;37.33;22.60;;;-1.30;99.90;;;;;;5090884;28;20191;-86
2024/01/19 07:11:48;;;;;;;37.20;22.43;;;-1.30;99.90;;;;;;5091070;28;20180;-84
2024/01/19 07:14:14;;;;;;;40.73;23.13;;;-1.30;99.90;;;;;;5085317;28;20270;-86
2024/01/19 07:16:40;;;;;;;40.47;23.93;;;-1.20;99.90;;;;;;5090008;28;20530;-84
2024/01/19 07:19:06;;;;;;;38.00;24.70;;;-1.30;99.90;;;;;;5093197;28;20168;-85
2024/01/19 07:21:41;;;;;;;44.23;25.57;;;-1.20;99.90;;;;;;5094114;28;20171;-83
2024/01/19 07:24:08;;;;;;;40.37;23.47;;;-1.10;99.90;;;;;;5092877;28;20535;-83
2024/01/19 07:26:34;;;;;;;47.87;25.33;;;-1.10;99.90;;;;;;5092884;28;20199;-85
2024/01/19 07:29:04;;;;;;;42.70;23.00;;;-1.20;99.90;;;;;;5094531;28;20164;-84
2024/01/19 07:31:30;;;;;;;41.20;24.87;;;-1.30;99.90;;;;;;5094613;28;20171;-85
2024/01/19 07:33:56;;;;;;;41.10;23.93;;;-1.30;99.90;;;;;;5094467;28;20172;-84
2024/01/19 07:36:22;;;;;;;44.40;26.57;;;-1.30;99.90;;;;;;5094854;28;20172;-84
2024/01/19 07:38:47;;;;;;;45.97;26.00;;;-1.30;99.90;;;;;;5094031;28;20175;-86
2024/01/19 07:41:13;;;;;;;44.57;25.80;;;-1.20;99.90;;;;;;5094500;28;20202;-85
2024/01/19 07:43:38;;;;;;;42.00;26.17;;;-1.30;99.90;;;;;;5094548;28;20233;-84
2024/01/19 07:46:04;;;;;;;41.50;26.13;;;-1.40;99.90;;;;;;5094344;28;20180;-84
2024/01/19 07:48:30;;;;;;;45.07;27.60;;;-1.30;99.90;;;;;;5092454;28;20240;-86
2024/01/19 07:50:55;;;;;;;43.27;28.03;;;-1.30;99.90;;;;;;5094005;28;20636;-86
2024/01/19 07:53:21;;;;;;;43.33;26.63;;;-1.30;99.90;;;;;;5093623;28;20324;-86
2024/01/19 07:55:46;;;;;;;42.97;24.77;;;-1.30;99.90;;;;;;5093802;28;20167;-86
2024/01/19 07:58:12;;;;;;;43.97;25.93;;;-1.30;99.90;;;;;;5093113;28;20198;-84
2024/01/19 08:00:38;;;;;;;51.03;28.80;;;-1.10;99.90;;;;;;5095908;28;20182;-85
2024/01/19 08:03:04;;;;;;;42.37;27.70;;;-1.20;99.90;;;;;;5094712;28;20172;-84
2024/01/19 08:05:30;;;;;;;42.70;25.70;;;-1.20;99.90;;;;;;5094315;28;20246;-84
2024/01/19 08:07:56;;;;;;;45.37;26.47;;;-1.20;99.90;;;;;;5093495;28;20260;-85
2024/01/19 08:10:22;;;;;;;46.03;27.93;;;-1.10;99.90;;;;;;5094473;28;20199;-86
2024/01/19 08:12:47;;;;;;;45.57;28.37;;;-1.10;99.90;;;;;;5094121;28;20176;-85
2024/01/19 08:15:13;;;;;;;48.43;28.50;;;-1.20;99.90;;;;;;5095565;28;20519;-87
2024/01/19 08:17:39;;;;;;;45.93;29.10;;;-1.00;99.90;;;;;;5093574;28;20725;-86
2024/01/19 08:20:05;;;;;;;47.17;29.17;;;-1.20;99.90;;;;;;5094401;28;20211;-85
2024/01/19 08:22:30;;;;;;;48.50;30.07;;;-1.10;99.90;;;;;;5095908;28;20207;-84
2024/01/19 08:24:58;;;;;;;49.17;30.63;;;-1.10;99.90;;;;;;5094006;28;20716;-85
2024/01/19 08:27:23;;;;;;;50.57;32.30;;;-1.00;99.90;;;;;;5095214;28;20172;-84
2024/01/19 08:29:49;;;;;;;49.13;28.50;;;-0.90;99.90;;;;;;5093654;28;20275;-86
2024/01/19 08:32:15;;;;;;;49.67;29.67;;;-0.90;99.90;;;;;;5093754;28;20175;-84
2024/01/19 08:34:43;;;;;;;50.27;30.07;;;-0.90;99.90;;;;;;5093990;28;20289;-86
2024/01/19 08:37:09;;;;;;;52.63;29.53;;;-0.90;99.90;;;;;;5092861;28;20278;-86
2024/01/19 08:39:35;;;;;;;48.13;31.53;;;-0.90;99.90;;;;;;5094599;28;20642;-84
2024/01/19 08:42:00;;;;;;;51.57;30.40;;;-0.90;99.90;;;;;;5096568;28;20176;-85
2024/01/19 08:44:26;;;;;;;51.80;32.27;;;-0.80;99.90;;;;;;5098822;28;20219;-84
2024/01/19 08:46:52;;;;;;;53.67;31.67;;;-0.70;99.90;;;;;;5095790;28;20167;-85
2024/01/19 08:49:17;;;;;;;51.00;32.07;;;-0.80;99.90;;;;;;5093622;28;20691;-85
2024/01/19 08:51:44;;;;;;;51.33;32.90;;;-0.80;99.90;;;;;;5093289;28;20174;-84
2024/01/19 08:54:10;;;;;;;49.27;31.17;;;-0.90;99.90;;;;;;5092064;28;20217;-83
2024/01/19 08:56:35;;;;;;;52.47;31.67;;;-0.80;99.90;;;;;;5093878;28;20678;-84
2024/01/19 08:59:01;;;;;;;52.87;31.83;;;-0.80;99.90;;;;;;5094888;28;20163;-86
2024/01/19 09:01:26;;;;;;;51.50;31.83;;;-0.70;99.90;;;;;;5092128;28;20172;-85
2024/01/19 09:03:52;;;;;;;48.83;31.30;;;-0.70;99.90;;;;;;5094422;28;20171;-85
2024/01/19 09:06:18;;;;;;;46.37;31.70;;;-0.80;99.90;;;;;;5093186;28;20171;-87
2024/01/19 09:08:44;;;;;;;47.53;31.43;;;-0.80;99.90;;;;;;5092766;28;20179;-84
2024/01/19 09:11:11;;;;;;;54.57;32.77;;;-0.80;99.90;;;;;;5093159;28;20229;-85
2024/01/19 09:13:40;;;;;;;51.73;31.00;;;-0.90;99.90;;;;;;5092914;28;20167;-86
2024/01/19 09:16:10;;;;;;;49.87;31.43;;;-0.80;99.90;;;;;;5091661;28;20175;-85
2024/01/19 09:18:37;;;;;;;49.93;30.90;;;-0.70;99.90;;;;;;5092759;28;20194;-83
2024/01/19 09:21:03;;;;;;;46.40;28.67;;;-0.80;99.90;;;;;;5093068;28;20690;-87
2024/01/19 09:23:28;;;;;;;47.17;29.83;;;-0.80;99.90;;;;;;5094100;28;20825;-84
2024/01/19 09:25:54;;;;;;;45.47;29.70;;;-0.70;99.90;;;;;;5092786;28;20203;-84
2024/01/19 09:28:20;;;;;;;47.87;30.03;;;-0.60;99.90;;;;;;5092639;28;20171;-84
2024/01/19 09:30:47;;;;;;;42.87;28.27;;;-0.50;99.90;;;;;;5091644;28;20175;-86
2024/01/19 09:33:16;;;;;;;42.50;26.97;;;-0.50;99.90;;;;;;5092469;28;20171;-84
2024/01/19 09:35:42;;;;;;;40.43;27.97;;;-0.40;99.90;;;;;;5092343;28;20195;-84
2024/01/19 09:38:08;;;;;;;45.10;27.60;;;-0.20;99.90;;;;;;5092595;28;20266;-85
2024/01/19 09:40:34;;;;;;;43.60;28.30;;;-0.20;99.90;;;;;;5091682;28;20164;-84
2024/01/19 09:43:01;;;;;;;39.30;25.30;;;-0.10;99.90;;;;;;5091807;28;20172;-85
2024/01/19 09:45:38;;;;;;;40.37;26.70;;;0.00;99.90;;;;;;5093718;28;20203;-85
2024/01/19 09:48:24;;;;;;;36.90;26.57;;;-0.10;99.90;;;;;;5092719;28;20701;-84
2024/01/19 09:50:52;;;;;;;40.07;26.80;;;0.20;99.90;;;;;;5092687;28;20221;-84
2024/01/19 09:53:32;;;;;;;39.40;26.60;;;0.20;99.90;;;;;;5093524;28;20163;-84
2024/01/19 09:55:59;;;;;;;39.13;25.50;;;0.10;99.90;;;;;;5091540;28;20173;-83
2024/01/19 09:58:26;;;;;;;39.07;27.17;;;0.10;99.90;;;;;;5091809;28;20707;-83
2024/01/19 10:00:53;;;;;;;40.90;25.43;;;0.10;99.90;;;;;;5092058;28;20167;-84
2024/01/19 10:03:19;;;;;;;36.53;24.80;;;0.20;99.90;;;;;;5091880;28;20607;-84
2024/01/19 10:05:48;;;;;;;34.60;23.70;;;0.30;99.90;;;;;;5091028;28;20306;-83
2024/01/19 10:08:14;;;;;;;35.23;23.67;;;0.40;99.90;;;;;;5091752;28;20175;-85
2024/01/19 10:10:44;;;;;;;40.33;24.53;;;0.40;99.90;;;;;;5091390;28;20693;-84
2024/01/19 10:13:10;;;;;;;38.20;24.97;;;0.40;99.90;;;;;;5092236;28;20175;-84
2024/01/19 10:15:36;;;;;;;33.20;23.77;;;0.50;99.90;;;;;;5093370;28;20171;-83
2024/01/19 10:18:05;;;;;;;32.30;24.40;;;0.60;99.90;;;;;;5092022;28;20248;-85
2024/01/19 10:20:31;;;;;;;33.17;22.80;;;0.60;99.90;;;;;;5092790;28;20248;-85
2024/01/19 10:22:56;;;;;;;33.13;22.57;;;0.60;99.90;;;;;;5092643;28;20203;-83
2024/01/19 10:25:22;;;;;;;32.43;23.07;;;0.80;99.90;;;;;;5098044;28;20231;-83
2024/01/19 10:27:51;;;;;;;31.03;21.73;;;0.90;99.90;;;;;;5104988;28;20171;-86
2024/01/19 10:30:23;;;;;;;30.90;21.53;;;0.80;99.90;;;;;;5094989;28;20184;-86
2024/01/19 10:32:50;;;;;;;29.43;21.23;;;0.90;99.90;;;;;;5091328;28;20174;-85
2024/01/19 10:35:17;;;;;;;30.80;20.93;;;0.80;99.90;;;;;;5090929;28;20176;-84
2024/01/19 10:37:44;;;;;;;31.10;21.23;;;0.80;99.90;;;;;;5091447;28;20636;-85
2024/01/19 10:40:21;;;;;;;29.07;21.10;;;0.80;99.90;;;;;;5091084;28;20682;-85
2024/01/19 10:42:50;;;;;;;27.80;21.30;;;1.00;99.90;;;;;;5092904;28;20176;-85
2024/01/19 10:45:23;;;;;;;29.87;21.87;;;1.00;99.90;;;;;;5095493;28;20215;-84
2024/01/19 10:48:01;;;;;;;28.47;21.13;;;1.20;99.90;;;;;;5096495;28;20225;-82
2024/01/19 10:50:28;;;;;;;31.80;21.73;;;1.30;99.90;;;;;;5078092;28;20175;-84
2024/01/19 10:52:55;;;;;;;30.10;21.97;;;1.40;98.50;;;;;;5091798;28;20179;-86
2024/01/19 10:55:29;;;;;;;28.03;20.93;;;1.50;97.80;;;;;;5091213;28;20266;-84
2024/01/19 10:58:11;;;;;;;27.23;21.43;;;1.50;95.60;;;;;;5091435;28;20290;-85
2024/01/19 11:00:38;;;;;;;32.17;21.27;;;1.50;96.40;;;;;;5090584;28;20172;-85
2024/01/19 11:03:04;;;;;;;29.37;21.00;;;1.70;94.90;;;;;;5092106;28;20220;-84
2024/01/19 11:05:31;;;;;;;27.53;21.23;;;1.60;94.40;;;;;;5091729;28;20746;-85
2024/01/19 11:07:58;;;;;;;26.77;19.90;;;1.70;94.70;;;;;;5092832;28;20180;-86
2024/01/19 11:10:28;;;;;;;30.60;21.07;;;1.80;92.60;;;;;;5091678;28;20616;-84
2024/01/19 11:12:56;;;;;;;25.63;19.70;;;1.80;92.80;;;;;;5090718;28;20172;-84
2024/01/19 11:15:45;;;;;;;28.83;21.00;;;1.90;93.60;;;;;;5090254;28;20229;-84
2024/01/19 11:18:11;;;;;;;32.27;20.00;;;1.90;92.50;;;;;;5090472;28;20204;-84
2024/01/19 11:20:37;;;;;;;26.40;19.90;;;1.70;91.90;;;;;;5093645;28;20298;-84
2024/01/19 11:23:04;;;;;;;28.57;20.43;;;1.80;93.30;;;;;;5095135;28;20179;-84
2024/01/19 11:25:50;;;;;;;27.70;20.20;;;1.90;94.10;;;;;;5098436;28;20264;-86
2024/01/19 11:28:26;;;;;;;23.93;18.53;;;1.90;93.20;;;;;;5095017;28;20164;-85
2024/01/19 11:30:51;;;;;;;26.47;19.27;;;1.90;92.40;;;;;;5095135;28;20551;-85
2024/01/19 11:33:18;;;;;;;26.27;18.73;;;1.90;93.10;;;;;;5094075;28;20171;-84
2024/01/19 11:35:48;;;;;;;25.57;18.67;;;2.00;91.90;;;;;;5095349;28;20218;-85
2024/01/19 11:38:36;;;;;;;27.93;18.80;;;2.10;91.40;;;;;;5081325;28;20195;-84
2024/01/19 11:41:02;;;;;;;27.00;18.77;;;2.10;90.60;;;;;;5097395;28;20198;-85
2024/01/19 11:43:40;;;;;;;24.63;19.10;;;2.00;91.10;;;;;;5095146;28;20172;-84
2024/01/19 11:46:07;;;;;;;26.93;18.80;;;2.10;91.60;;;;;;5098692;28;20271;-84
2024/01/19 11:48:43;;;;;;;28.70;19.77;;;2.20;90.70;;;;;;5098270;28;20187;-84
2024/01/19 11:51:34;;;;;;;24.53;19.10;;;2.20;91.40;;;;;;5093295;28;20171;-84
2024/01/19 11:54:04;;;;;;;27.40;19.00;;;2.20;90.00;;;;;;5094124;28;20172;-85
2024/01/19 11:56:30;;;;;;;25.63;19.23;;;2.10;90.40;;;;;;5094511;28;20305;-85
2024/01/19 11:58:55;;;;;;;24.83;18.67;;;2.00;91.90;;;;;;5096025;28;20612;-85
2024/01/19 12:01:22;;;;;;;28.07;19.27;;;2.00;93.40;;;;;;5094592;28;20175;-84
2024/01/19 12:03:55;;;;;;;24.83;19.20;;;2.10;94.00;;;;;;5094236;28;20167;-83
2024/01/19 12:06:22;;;;;;;26.73;19.27;;;2.10;93.80;;;;;;5094203;28;20190;-84
2024/01/19 12:09:05;;;;;;;25.97;19.87;;;2.10;93.80;;;;;;5095364;28;20238;-84
2024/01/19 12:11:32;;;;;;;23.67;18.30;;;2.00;94.30;;;;;;5106249;28;20171;-85
2024/01/19 12:14:03;;;;;;;26.13;20.97;;;2.10;95.50;;;;;;5094760;28;20627;-84
2024/01/19 12:16:29;;;;;;;29.43;20.10;;;2.20;95.40;;;;;;5095532;28;20539;-85
2024/01/19 12:18:55;;;;;;;29.43;20.43;;;2.10;95.40;;;;;;5093831;28;20190;-84
2024/01/19 12:21:21;;;;;;;30.10;18.90;;;2.20;95.90;;;;;;5093569;28;20208;-85
2024/01/19 12:23:55;;;;;;;23.90;18.90;;;2.40;95.00;;;;;;5093759;28;20237;-84
2024/01/19 12:26:22;;;;;;;23.17;18.93;;;2.60;92.30;;;;;;5093840;28;20190;-85